sensor_id;sensor_type;location;lat;lon;timestamp;temperature;humidity
4725;DHT22;2376;53.544;10.226;2023-02-13T00:00:11;10.50;99.90
4725;DHT22;2376;53.544;10.226;2023-02-13T00:02:38;10.50;99.90
4725;DHT22;2376;53.544;10.226;2023-02-13T00:05:06;10.50;99.90
4725;DHT22;2376;53.544;10.226;2023-02-13T00:07:33;10.50;99.90
4725;DHT22;2376;53.544;10.226;2023-02-13T00:10:00;10.50;99.90
4725;DHT22;2376;53.544;10.226;2023-02-13T00:12:27;10.50;99.90
4725;DHT22;2376;53.544;10.226;2023-02-13T00:14:53;10.50;99.90
4725;DHT22;2376;53.544;10.226;2023-02-13T00:17:21;10.50;99.90
4725;DHT22;2376;53.544;10.226;2023-02-13T00:19:49;10.50;99.90
4725;DHT22;2376;53.544;10.226;2023-02-13T00:22:15;10.50;99.90
4725;DHT22;2376;53.544;10.226;2023-02-13T00:24:42;10.50;99.90
4725;DHT22;2376;53.544;10.226;2023-02-13T00:27:09;10.50;99.90
4725;DHT22;2376;53.544;10.226;2023-02-13T00:29:36;10.50;99.90
4725;DHT22;2376;53.544;10.226;2023-02-13T00:32:02;10.50;99.90
4725;DHT22;2376;53.544;10.226;2023-02-13T00:34:31;10.50;99.90
4725;DHT22;2376;53.544;10.226;2023-02-13T00:36:57;10.60;99.90
4725;DHT22;2376;53.544;10.226;2023-02-13T00:39:24;10.50;99.90
4725;DHT22;2376;53.544;10.226;2023-02-13T00:41:51;10.50;99.90
4725;DHT22;2376;53.544;10.226;2023-02-13T00:44:17;10.50;99.90
4725;DHT22;2376;53.544;10.226;2023-02-13T00:46:44;10.50;99.90
4725;DHT22;2376;53.544;10.226;2023-02-13T00:49:11;10.50;99.90
4725;DHT22;2376;53.544;10.226;2023-02-13T00:51:39;10.50;99.90
4725;DHT22;2376;53.544;10.226;2023-02-13T00:54:06;10.50;99.90
4725;DHT22;2376;53.544;10.226;2023-02-13T00:56:33;10.50;99.90
4725;DHT22;2376;53.544;10.226;2023-02-13T00:58:59;10.50;99.90
4725;DHT22;2376;53.544;10.226;2023-02-13T01:01:26;10.50;99.90
4725;DHT22;2376;53.544;10.226;2023-02-13T01:03:53;10.50;99.90
4725;DHT22;2376;53.544;10.226;2023-02-13T01:06:19;10.50;99.90
4725;DHT22;2376;53.544;10.226;2023-02-13T01:08:48;10.50;99.90
4725;DHT22;2376;53.544;10.226;2023-02-13T01:11:14;10.50;99.90
4725;DHT22;2376;53.544;10.226;2023-02-13T01:13:41;10.40;99.90
4725;DHT22;2376;53.544;10.226;2023-02-13T01:16:08;10.40;99.90
4725;DHT22;2376;53.544;10.226;2023-02-13T01:18:34;10.40;99.90
4725;DHT22;2376;53.544;10.226;2023-02-13T01:21:03;10.40;99.90
4725;DHT22;2376;53.544;10.226;2023-02-13T01:23:31;10.50;99.90
4725;DHT22;2376;53.544;10.226;2023-02-13T01:25:59;10.50;99.90
4725;DHT22;2376;53.544;10.226;2023-02-13T01:28:26;10.50;99.90
4725;DHT22;2376;53.544;10.226;2023-02-13T01:30:53;10.40;99.90
4725;DHT22;2376;53.544;10.226;2023-02-13T01:33:20;10.40;99.90
4725;DHT22;2376;53.544;10.226;2023-02-13T01:35:48;10.40;99.90
4725;DHT22;2376;53.544;10.226;2023-02-13T01:38:15;10.40;99.90
4725;DHT22;2376;53.544;10.226;2023-02-13T01:40:45;10.40;99.90
4725;DHT22;2376;53.544;10.226;2023-02-13T01:43:13;10.40;99.90
4725;DHT22;2376;53.544;10.226;2023-02-13T01:45:41;10.50;99.90
4725;DHT22;2376;53.544;10.226;2023-02-13T01:48:12;10.40;99.90
4725;DHT22;2376;53.544;10.226;2023-02-13T01:50:43;10.40;99.90
4725;DHT22;2376;53.544;10.226;2023-02-13T01:53:16;10.50;99.90
4725;DHT22;2376;53.544;10.226;2023-02-13T01:55:48;10.40;99.90
4725;DHT22;2376;53.544;10.226;2023-02-13T01:58:21;10.40;99.90
4725;DHT22;2376;53.544;10.226;2023-02-13T02:00:50;10.50;99.90
4725;DHT22;2376;53.544;10.226;2023-02-13T02:03:20;10.40;99.90
4725;DHT22;2376;53.544;10.226;2023-02-13T02:05:50;10.40;99.90
4725;DHT22;2376;53.544;10.226;2023-02-13T02:08:18;10.40;99.90
4725;DHT22;2376;53.544;10.226;2023-02-13T02:10:45;10.40;99.90
4725;DHT22;2376;53.544;10.226;2023-02-13T02:13:14;10.40;99.90
4725;DHT22;2376;53.544;10.226;2023-02-13T02:15:44;10.40;99.90
4725;DHT22;2376;53.544;10.226;2023-02-13T02:18:14;10.50;99.90
4725;DHT22;2376;53.544;10.226;2023-02-13T02:24:17;10.40;99.90
4725;DHT22;2376;53.544;10.226;2023-02-13T02:27:04;10.40;99.90
4725;DHT22;2376;53.544;10.226;2023-02-13T02:30:10;10.40;99.90
4725;DHT22;2376;53.544;10.226;2023-02-13T02:32:53;10.40;99.90
4725;DHT22;2376;53.544;10.226;2023-02-13T02:35:28;10.40;99.90
4725;DHT22;2376;53.544;10.226;2023-02-13T02:38:07;10.40;99.90
4725;DHT22;2376;53.544;10.226;2023-02-13T02:40:43;10.40;99.90
4725;DHT22;2376;53.544;10.226;2023-02-13T02:43:22;10.40;99.90
4725;DHT22;2376;53.544;10.226;2023-02-13T02:45:56;10.40;99.90
4725;DHT22;2376;53.544;10.226;2023-02-13T02:48:32;10.30;99.90
4725;DHT22;2376;53.544;10.226;2023-02-13T02:51:20;10.30;99.90
4725;DHT22;2376;53.544;10.226;2023-02-13T02:54:02;10.40;99.90
4725;DHT22;2376;53.544;10.226;2023-02-13T02:56:50;10.40;99.90
4725;DHT22;2376;53.544;10.226;2023-02-13T02:59:19;10.40;99.90
4725;DHT22;2376;53.544;10.226;2023-02-13T03:02:05;10.40;99.90
4725;DHT22;2376;53.544;10.226;2023-02-13T03:04:54;10.40;99.90
4725;DHT22;2376;53.544;10.226;2023-02-13T03:07:39;10.30;99.90
4725;DHT22;2376;53.544;10.226;2023-02-13T03:10:11;10.30;99.90
4725;DHT22;2376;53.544;10.226;2023-02-13T03:13:00;10.30;99.90
4725;DHT22;2376;53.544;10.226;2023-02-13T03:15:45;10.30;99.90
4725;DHT22;2376;53.544;10.226;2023-02-13T03:18:27;10.30;99.90
4725;DHT22;2376;53.544;10.226;2023-02-13T03:21:16;10.30;99.90
4725;DHT22;2376;53.544;10.226;2023-02-13T03:24:11;10.30;99.90
4725;DHT22;2376;53.544;10.226;2023-02-13T03:26:47;10.30;99.90
4725;DHT22;2376;53.544;10.226;2023-02-13T03:29:25;10.20;99.90
4725;DHT22;2376;53.544;10.226;2023-02-13T03:32:20;10.20;99.90
4725;DHT22;2376;53.544;10.226;2023-02-13T03:34:54;10.10;99.90
4725;DHT22;2376;53.544;10.226;2023-02-13T03:37:45;10.10;99.90
4725;DHT22;2376;53.544;10.226;2023-02-13T03:40:25;10.10;99.90
4725;DHT22;2376;53.544;10.226;2023-02-13T03:42:54;10.10;99.90
4725;DHT22;2376;53.544;10.226;2023-02-13T03:45:26;10.10;99.90
4725;DHT22;2376;53.544;10.226;2023-02-13T03:48:13;10.20;99.90
4725;DHT22;2376;53.544;10.226;2023-02-13T03:51:18;10.10;99.90
4725;DHT22;2376;53.544;10.226;2023-02-13T03:53:49;10.10;99.90
4725;DHT22;2376;53.544;10.226;2023-02-13T03:56:18;10.10;99.90
4725;DHT22;2376;53.544;10.226;2023-02-13T03:59:04;10.10;99.90
4725;DHT22;2376;53.544;10.226;2023-02-13T04:01:44;10.00;99.90
4725;DHT22;2376;53.544;10.226;2023-02-13T04:04:16;10.00;99.90
4725;DHT22;2376;53.544;10.226;2023-02-13T04:06:47;10.00;99.90
4725;DHT22;2376;53.544;10.226;2023-02-13T04:09:17;10.00;99.90
4725;DHT22;2376;53.544;10.226;2023-02-13T04:11:50;10.10;99.90
4725;DHT22;2376;53.544;10.226;2023-02-13T04:14:21;10.10;99.90
4725;DHT22;2376;53.544;10.226;2023-02-13T04:16:51;10.10;99.90
4725;DHT22;2376;53.544;10.226;2023-02-13T04:19:20;10.10;99.90
4725;DHT22;2376;53.544;10.226;2023-02-13T04:21:50;10.10;99.90
4725;DHT22;2376;53.544;10.226;2023-02-13T04:24:21;10.10;99.90
4725;DHT22;2376;53.544;10.226;2023-02-13T04:26:48;10.10;99.90
4725;DHT22;2376;53.544;10.226;2023-02-13T04:29:15;10.20;99.90
4725;DHT22;2376;53.544;10.226;2023-02-13T04:31:42;10.10;99.90
4725;DHT22;2376;53.544;10.226;2023-02-13T04:34:08;10.10;99.90
4725;DHT22;2376;53.544;10.226;2023-02-13T04:36:35;10.10;99.90
4725;DHT22;2376;53.544;10.226;2023-02-13T04:39:02;10.10;99.90
4725;DHT22;2376;53.544;10.226;2023-02-13T04:41:30;10.10;99.90
4725;DHT22;2376;53.544;10.226;2023-02-13T04:43:57;10.10;99.90
4725;DHT22;2376;53.544;10.226;2023-02-13T04:46:23;10.10;99.90
4725;DHT22;2376;53.544;10.226;2023-02-13T04:48:53;10.10;99.90
4725;DHT22;2376;53.544;10.226;2023-02-13T04:51:20;10.10;99.90
4725;DHT22;2376;53.544;10.226;2023-02-13T04:53:47;10.10;99.90
4725;DHT22;2376;53.544;10.226;2023-02-13T04:56:14;10.10;99.90
4725;DHT22;2376;53.544;10.226;2023-02-13T04:58:42;10.10;99.90
4725;DHT22;2376;53.544;10.226;2023-02-13T05:01:12;10.10;99.90
4725;DHT22;2376;53.544;10.226;2023-02-13T05:03:39;10.10;99.90
4725;DHT22;2376;53.544;10.226;2023-02-13T05:06:06;10.10;99.90
4725;DHT22;2376;53.544;10.226;2023-02-13T05:08:33;10.20;99.90
4725;DHT22;2376;53.544;10.226;2023-02-13T05:11:00;10.10;99.90
4725;DHT22;2376;53.544;10.226;2023-02-13T05:13:27;10.10;99.90
4725;DHT22;2376;53.544;10.226;2023-02-13T05:15:55;10.10;99.90
4725;DHT22;2376;53.544;10.226;2023-02-13T05:18:22;10.10;99.90
4725;DHT22;2376;53.544;10.226;2023-02-13T05:20:49;10.20;99.90
4725;DHT22;2376;53.544;10.226;2023-02-13T05:23:29;10.20;99.90
4725;DHT22;2376;53.544;10.226;2023-02-13T05:25:56;10.10;99.90
4725;DHT22;2376;53.544;10.226;2023-02-13T05:28:23;10.10;99.90
4725;DHT22;2376;53.544;10.226;2023-02-13T05:31:09;10.10;99.90
4725;DHT22;2376;53.544;10.226;2023-02-13T05:33:35;10.10;99.90
4725;DHT22;2376;53.544;10.226;2023-02-13T05:36:02;10.10;99.90
4725;DHT22;2376;53.544;10.226;2023-02-13T05:38:29;10.10;99.90
4725;DHT22;2376;53.544;10.226;2023-02-13T05:40:57;10.00;99.90
4725;DHT22;2376;53.544;10.226;2023-02-13T05:43:25;10.10;99.90
4725;DHT22;2376;53.544;10.226;2023-02-13T05:45:59;10.10;99.90
4725;DHT22;2376;53.544;10.226;2023-02-13T05:48:27;10.10;99.90
4725;DHT22;2376;53.544;10.226;2023-02-13T05:50:54;10.10;99.90
4725;DHT22;2376;53.544;10.226;2023-02-13T05:53:21;10.10;99.90
4725;DHT22;2376;53.544;10.226;2023-02-13T05:55:47;10.10;99.90
4725;DHT22;2376;53.544;10.226;2023-02-13T05:58:15;10.00;99.90
4725;DHT22;2376;53.544;10.226;2023-02-13T06:00:42;10.00;99.90
4725;DHT22;2376;53.544;10.226;2023-02-13T06:03:08;10.00;99.90
4725;DHT22;2376;53.544;10.226;2023-02-13T06:05:36;10.00;99.90
4725;DHT22;2376;53.544;10.226;2023-02-13T06:08:03;10.00;99.90
4725;DHT22;2376;53.544;10.226;2023-02-13T06:10:30;10.00;99.90
4725;DHT22;2376;53.544;10.226;2023-02-13T06:12:57;10.00;99.90
4725;DHT22;2376;53.544;10.226;2023-02-13T06:15:24;10.00;99.90
4725;DHT22;2376;53.544;10.226;2023-02-13T06:17:51;10.00;99.90
4725;DHT22;2376;53.544;10.226;2023-02-13T06:20:28;9.90;99.90
4725;DHT22;2376;53.544;10.226;2023-02-13T06:22:56;10.00;99.90
4725;DHT22;2376;53.544;10.226;2023-02-13T06:25:41;10.00;99.90
4725;DHT22;2376;53.544;10.226;2023-02-13T06:28:14;10.00;99.90
4725;DHT22;2376;53.544;10.226;2023-02-13T06:30:43;10.00;99.90
4725;DHT22;2376;53.544;10.226;2023-02-13T06:33:10;9.90;99.90
4725;DHT22;2376;53.544;10.226;2023-02-13T06:35:37;9.90;99.90
4725;DHT22;2376;53.544;10.226;2023-02-13T06:38:05;10.00;99.90
4725;DHT22;2376;53.544;10.226;2023-02-13T06:40:32;9.90;99.90
4725;DHT22;2376;53.544;10.226;2023-02-13T06:42:58;9.90;99.90
4725;DHT22;2376;53.544;10.226;2023-02-13T06:45:25;10.00;99.90
4725;DHT22;2376;53.544;10.226;2023-02-13T06:47:52;9.90;99.90
4725;DHT22;2376;53.544;10.226;2023-02-13T06:50:18;9.90;99.90
4725;DHT22;2376;53.544;10.226;2023-02-13T06:52:46;9.90;99.90
4725;DHT22;2376;53.544;10.226;2023-02-13T06:55:15;9.90;99.90
4725;DHT22;2376;53.544;10.226;2023-02-13T06:57:43;10.00;99.90
4725;DHT22;2376;53.544;10.226;2023-02-13T07:00:11;9.90;99.90
4725;DHT22;2376;53.544;10.226;2023-02-13T07:02:39;9.90;99.90
4725;DHT22;2376;53.544;10.226;2023-02-13T07:05:06;9.90;99.90
4725;DHT22;2376;53.544;10.226;2023-02-13T07:07:34;9.90;99.90
4725;DHT22;2376;53.544;10.226;2023-02-13T07:10:07;9.90;99.90
4725;DHT22;2376;53.544;10.226;2023-02-13T07:12:39;9.90;99.90
4725;DHT22;2376;53.544;10.226;2023-02-13T07:15:06;9.90;99.90
4725;DHT22;2376;53.544;10.226;2023-02-13T07:17:33;9.90;99.90
4725;DHT22;2376;53.544;10.226;2023-02-13T07:20:00;9.90;99.90
4725;DHT22;2376;53.544;10.226;2023-02-13T07:22:29;9.90;99.90
4725;DHT22;2376;53.544;10.226;2023-02-13T07:24:56;9.90;99.90
4725;DHT22;2376;53.544;10.226;2023-02-13T07:27:23;9.90;99.90
4725;DHT22;2376;53.544;10.226;2023-02-13T07:29:52;10.00;99.90
4725;DHT22;2376;53.544;10.226;2023-02-13T07:32:19;9.90;99.90
4725;DHT22;2376;53.544;10.226;2023-02-13T07:34:46;9.90;99.90
4725;DHT22;2376;53.544;10.226;2023-02-13T07:37:13;9.90;99.90
4725;DHT22;2376;53.544;10.226;2023-02-13T07:39:42;9.90;99.90
4725;DHT22;2376;53.544;10.226;2023-02-13T07:42:09;9.90;99.90
4725;DHT22;2376;53.544;10.226;2023-02-13T07:44:36;9.90;99.90
4725;DHT22;2376;53.544;10.226;2023-02-13T07:47:08;9.90;99.90
4725;DHT22;2376;53.544;10.226;2023-02-13T07:49:34;9.90;99.90
4725;DHT22;2376;53.544;10.226;2023-02-13T07:52:02;9.90;99.90
4725;DHT22;2376;53.544;10.226;2023-02-13T07:54:29;9.90;99.90
4725;DHT22;2376;53.544;10.226;2023-02-13T07:56:57;9.90;99.90
4725;DHT22;2376;53.544;10.226;2023-02-13T07:59:27;9.90;99.90
4725;DHT22;2376;53.544;10.226;2023-02-13T08:02:00;9.90;99.90
4725;DHT22;2376;53.544;10.226;2023-02-13T08:04:35;10.00;99.90
4725;DHT22;2376;53.544;10.226;2023-02-13T08:07:01;9.90;99.90
4725;DHT22;2376;53.544;10.226;2023-02-13T08:09:31;9.90;99.90
4725;DHT22;2376;53.544;10.226;2023-02-13T08:12:18;9.90;99.90
4725;DHT22;2376;53.544;10.226;2023-02-13T08:14:53;9.90;99.90
4725;DHT22;2376;53.544;10.226;2023-02-13T08:17:22;10.00;99.90
4725;DHT22;2376;53.544;10.226;2023-02-13T08:19:56;9.90;99.90
4725;DHT22;2376;53.544;10.226;2023-02-13T08:22:29;10.00;99.90
4725;DHT22;2376;53.544;10.226;2023-02-13T08:25:05;10.00;99.90
4725;DHT22;2376;53.544;10.226;2023-02-13T08:27:41;10.00;99.90
4725;DHT22;2376;53.544;10.226;2023-02-13T08:30:13;10.00;99.90
4725;DHT22;2376;53.544;10.226;2023-02-13T08:32:41;10.00;99.90
4725;DHT22;2376;53.544;10.226;2023-02-13T08:35:17;10.10;99.90
4725;DHT22;2376;53.544;10.226;2023-02-13T08:37:44;10.00;99.90
4725;DHT22;2376;53.544;10.226;2023-02-13T08:40:12;10.00;99.90
4725;DHT22;2376;53.544;10.226;2023-02-13T08:42:39;10.00;99.90
4725;DHT22;2376;53.544;10.226;2023-02-13T08:45:06;10.00;99.90
4725;DHT22;2376;53.544;10.226;2023-02-13T08:47:36;10.00;99.90
4725;DHT22;2376;53.544;10.226;2023-02-13T08:50:09;10.00;99.90
4725;DHT22;2376;53.544;10.226;2023-02-13T08:52:48;10.00;99.90
4725;DHT22;2376;53.544;10.226;2023-02-13T08:55:14;10.00;99.90
4725;DHT22;2376;53.544;10.226;2023-02-13T08:57:41;10.00;99.90
4725;DHT22;2376;53.544;10.226;2023-02-13T09:00:10;10.00;99.90
4725;DHT22;2376;53.544;10.226;2023-02-13T09:02:37;10.00;99.90
4725;DHT22;2376;53.544;10.226;2023-02-13T09:05:05;10.00;99.90
4725;DHT22;2376;53.544;10.226;2023-02-13T09:07:34;10.00;99.90
4725;DHT22;2376;53.544;10.226;2023-02-13T09:10:03;10.00;99.90
4725;DHT22;2376;53.544;10.226;2023-02-13T09:12:30;10.00;99.90
4725;DHT22;2376;53.544;10.226;2023-02-13T09:15:02;10.00;99.90
4725;DHT22;2376;53.544;10.226;2023-02-13T09:17:32;10.00;99.90
4725;DHT22;2376;53.544;10.226;2023-02-13T09:20:06;10.00;99.90
4725;DHT22;2376;53.544;10.226;2023-02-13T09:22:40;10.00;99.90
4725;DHT22;2376;53.544;10.226;2023-02-13T09:25:12;10.00;99.90
4725;DHT22;2376;53.544;10.226;2023-02-13T09:27:40;10.00;99.90
4725;DHT22;2376;53.544;10.226;2023-02-13T09:30:11;10.00;99.90
4725;DHT22;2376;53.544;10.226;2023-02-13T09:32:49;10.00;99.90
4725;DHT22;2376;53.544;10.226;2023-02-13T09:35:18;10.10;99.90
4725;DHT22;2376;53.544;10.226;2023-02-13T09:37:46;10.10;99.90
4725;DHT22;2376;53.544;10.226;2023-02-13T09:40:20;10.10;99.90
4725;DHT22;2376;53.544;10.226;2023-02-13T09:43:03;10.10;99.90
4725;DHT22;2376;53.544;10.226;2023-02-13T09:45:31;10.10;99.90
4725;DHT22;2376;53.544;10.226;2023-02-13T09:47:58;10.10;99.90
4725;DHT22;2376;53.544;10.226;2023-02-13T09:50:28;10.10;99.90
4725;DHT22;2376;53.544;10.226;2023-02-13T09:52:56;10.20;99.90
4725;DHT22;2376;53.544;10.226;2023-02-13T09:55:36;10.30;99.90
4725;DHT22;2376;53.544;10.226;2023-02-13T09:58:17;10.10;99.90
4725;DHT22;2376;53.544;10.226;2023-02-13T10:00:48;10.20;99.90
4725;DHT22;2376;53.544;10.226;2023-02-13T10:03:20;10.20;99.90
4725;DHT22;2376;53.544;10.226;2023-02-13T10:05:56;10.20;99.90
4725;DHT22;2376;53.544;10.226;2023-02-13T10:08:33;10.20;99.90
4725;DHT22;2376;53.544;10.226;2023-02-13T10:11:19;10.20;99.90
4725;DHT22;2376;53.544;10.226;2023-02-13T10:13:59;10.20;99.90
4725;DHT22;2376;53.544;10.226;2023-02-13T10:16:34;10.30;99.90
4725;DHT22;2376;53.544;10.226;2023-02-13T10:19:07;10.30;99.90
4725;DHT22;2376;53.544;10.226;2023-02-13T10:21:45;10.30;99.90
4725;DHT22;2376;53.544;10.226;2023-02-13T10:24:30;10.40;99.90
4725;DHT22;2376;53.544;10.226;2023-02-13T10:27:04;10.30;99.90
4725;DHT22;2376;53.544;10.226;2023-02-13T10:29:38;10.30;99.90
4725;DHT22;2376;53.544;10.226;2023-02-13T10:32:29;10.30;99.90
4725;DHT22;2376;53.544;10.226;2023-02-13T10:34:59;10.40;99.90
4725;DHT22;2376;53.544;10.226;2023-02-13T10:37:28;10.40;99.90
4725;DHT22;2376;53.544;10.226;2023-02-13T10:39:55;10.40;99.90
4725;DHT22;2376;53.544;10.226;2023-02-13T10:42:31;10.40;99.90
4725;DHT22;2376;53.544;10.226;2023-02-13T10:45:17;10.50;99.90
4725;DHT22;2376;53.544;10.226;2023-02-13T10:48:02;10.50;99.90
4725;DHT22;2376;53.544;10.226;2023-02-13T10:50:37;10.40;99.90
4725;DHT22;2376;53.544;10.226;2023-02-13T10:53:12;10.40;99.90
4725;DHT22;2376;53.544;10.226;2023-02-13T10:56:00;10.50;99.90
4725;DHT22;2376;53.544;10.226;2023-02-13T10:58:41;10.50;99.90
4725;DHT22;2376;53.544;10.226;2023-02-13T11:01:20;10.50;99.90
4725;DHT22;2376;53.544;10.226;2023-02-13T11:04:03;10.50;99.90
4725;DHT22;2376;53.544;10.226;2023-02-13T11:06:36;10.50;99.90
4725;DHT22;2376;53.544;10.226;2023-02-13T11:09:04;10.60;99.90
4725;DHT22;2376;53.544;10.226;2023-02-13T11:11:33;10.60;99.90
4725;DHT22;2376;53.544;10.226;2023-02-13T11:14:12;10.60;99.90
4725;DHT22;2376;53.544;10.226;2023-02-13T11:16:45;10.60;99.90
4725;DHT22;2376;53.544;10.226;2023-02-13T11:19:19;10.60;99.90
4725;DHT22;2376;53.544;10.226;2023-02-13T11:21:52;10.70;99.90
4725;DHT22;2376;53.544;10.226;2023-02-13T11:24:21;10.70;99.90
4725;DHT22;2376;53.544;10.226;2023-02-13T11:26:55;10.60;99.90
4725;DHT22;2376;53.544;10.226;2023-02-13T11:29:27;10.60;99.90
4725;DHT22;2376;53.544;10.226;2023-02-13T11:32:19;10.70;99.90
4725;DHT22;2376;53.544;10.226;2023-02-13T11:34:47;10.70;99.90
4725;DHT22;2376;53.544;10.226;2023-02-13T11:37:27;10.70;99.90
4725;DHT22;2376;53.544;10.226;2023-02-13T11:39:55;10.70;99.90
4725;DHT22;2376;53.544;10.226;2023-02-13T11:42:28;10.70;99.90
4725;DHT22;2376;53.544;10.226;2023-02-13T11:45:01;10.70;99.90
4725;DHT22;2376;53.544;10.226;2023-02-13T11:47:36;10.70;99.90
4725;DHT22;2376;53.544;10.226;2023-02-13T11:50:05;10.70;99.90
4725;DHT22;2376;53.544;10.226;2023-02-13T11:52:34;10.70;99.90
4725;DHT22;2376;53.544;10.226;2023-02-13T11:55:03;10.80;99.90
4725;DHT22;2376;53.544;10.226;2023-02-13T11:57:32;10.80;99.90
4725;DHT22;2376;53.544;10.226;2023-02-13T12:00:25;10.80;99.90
4725;DHT22;2376;53.544;10.226;2023-02-13T12:02:52;10.90;99.90
4725;DHT22;2376;53.544;10.226;2023-02-13T12:05:21;10.90;99.90
4725;DHT22;2376;53.544;10.226;2023-02-13T12:07:49;10.90;99.90
4725;DHT22;2376;53.544;10.226;2023-02-13T12:10:20;10.80;99.90
4725;DHT22;2376;53.544;10.226;2023-02-13T12:12:53;10.80;99.90
4725;DHT22;2376;53.544;10.226;2023-02-13T12:15:24;10.80;99.90
4725;DHT22;2376;53.544;10.226;2023-02-13T12:18:01;10.80;99.90
4725;DHT22;2376;53.544;10.226;2023-02-13T12:20:34;10.80;99.90
4725;DHT22;2376;53.544;10.226;2023-02-13T12:23:06;10.80;99.90
4725;DHT22;2376;53.544;10.226;2023-02-13T12:25:47;10.80;99.90
4725;DHT22;2376;53.544;10.226;2023-02-13T12:28:23;10.80;99.90
4725;DHT22;2376;53.544;10.226;2023-02-13T12:34:16;10.90;99.90
4725;DHT22;2376;53.544;10.226;2023-02-13T12:36:51;10.90;99.90
4725;DHT22;2376;53.544;10.226;2023-02-13T12:39:25;10.90;99.90
4725;DHT22;2376;53.544;10.226;2023-02-13T12:42:03;10.90;99.90
4725;DHT22;2376;53.544;10.226;2023-02-13T12:45:01;10.90;99.90
4725;DHT22;2376;53.544;10.226;2023-02-13T12:47:37;10.90;99.90
4725;DHT22;2376;53.544;10.226;2023-02-13T12:50:29;10.90;99.90
4725;DHT22;2376;53.544;10.226;2023-02-13T12:55:59;10.90;99.90
4725;DHT22;2376;53.544;10.226;2023-02-13T12:58:51;10.90;99.90
4725;DHT22;2376;53.544;10.226;2023-02-13T13:01:32;10.90;99.90
4725;DHT22;2376;53.544;10.226;2023-02-13T13:04:13;10.90;99.90
4725;DHT22;2376;53.544;10.226;2023-02-13T13:07:01;10.90;99.90
4725;DHT22;2376;53.544;10.226;2023-02-13T13:09:51;10.90;99.90
4725;DHT22;2376;53.544;10.226;2023-02-13T13:12:31;10.90;99.90
4725;DHT22;2376;53.544;10.226;2023-02-13T13:15:07;10.90;99.90
4725;DHT22;2376;53.544;10.226;2023-02-13T13:17:44;10.90;99.90
4725;DHT22;2376;53.544;10.226;2023-02-13T13:20:51;10.90;99.90
4725;DHT22;2376;53.544;10.226;2023-02-13T13:23:23;10.90;99.90
4725;DHT22;2376;53.544;10.226;2023-02-13T13:26:01;10.80;99.90
4725;DHT22;2376;53.544;10.226;2023-02-13T13:28:34;10.80;99.90
4725;DHT22;2376;53.544;10.226;2023-02-13T13:31:03;10.90;99.90
4725;DHT22;2376;53.544;10.226;2023-02-13T13:33:32;10.80;99.90
4725;DHT22;2376;53.544;10.226;2023-02-13T13:36:04;10.80;99.90
4725;DHT22;2376;53.544;10.226;2023-02-13T13:38:48;10.80;99.90
4725;DHT22;2376;53.544;10.226;2023-02-13T13:41:21;10.80;99.90
4725;DHT22;2376;53.544;10.226;2023-02-13T13:44:14;10.80;99.90
4725;DHT22;2376;53.544;10.226;2023-02-13T13:46:49;10.70;99.90
4725;DHT22;2376;53.544;10.226;2023-02-13T13:49:28;10.70;99.90
4725;DHT22;2376;53.544;10.226;2023-02-13T13:52:17;10.70;99.90
4725;DHT22;2376;53.544;10.226;2023-02-13T13:54:46;10.70;99.90
4725;DHT22;2376;53.544;10.226;2023-02-13T13:57:16;10.80;99.90
4725;DHT22;2376;53.544;10.226;2023-02-13T14:02:45;10.90;99.90
4725;DHT22;2376;53.544;10.226;2023-02-13T14:05:24;10.90;99.90
4725;DHT22;2376;53.544;10.226;2023-02-13T14:07:53;10.80;99.90
4725;DHT22;2376;53.544;10.226;2023-02-13T14:13:36;10.70;99.90
4725;DHT22;2376;53.544;10.226;2023-02-13T14:16:05;10.60;99.90
4725;DHT22;2376;53.544;10.226;2023-02-13T14:18:35;10.60;99.90
4725;DHT22;2376;53.544;10.226;2023-02-13T14:21:03;10.60;99.90
4725;DHT22;2376;53.544;10.226;2023-02-13T14:23:45;10.50;99.90
4725;DHT22;2376;53.544;10.226;2023-02-13T14:26:26;10.50;99.90
4725;DHT22;2376;53.544;10.226;2023-02-13T14:28:59;10.50;99.90
4725;DHT22;2376;53.544;10.226;2023-02-13T14:31:30;10.60;99.90
4725;DHT22;2376;53.544;10.226;2023-02-13T14:33:59;10.60;99.90
4725;DHT22;2376;53.544;10.226;2023-02-13T14:36:28;10.60;99.90
4725;DHT22;2376;53.544;10.226;2023-02-13T14:39:00;10.60;99.90
4725;DHT22;2376;53.544;10.226;2023-02-13T14:41:44;10.70;99.90
4725;DHT22;2376;53.544;10.226;2023-02-13T14:44:24;10.60;99.90
4725;DHT22;2376;53.544;10.226;2023-02-13T14:46:53;10.60;99.90
4725;DHT22;2376;53.544;10.226;2023-02-13T14:49:23;10.60;99.90
4725;DHT22;2376;53.544;10.226;2023-02-13T14:51:53;10.70;99.90
4725;DHT22;2376;53.544;10.226;2023-02-13T14:54:25;10.70;99.90
4725;DHT22;2376;53.544;10.226;2023-02-13T14:57:04;10.70;99.90
4725;DHT22;2376;53.544;10.226;2023-02-13T14:59:35;10.70;99.90
4725;DHT22;2376;53.544;10.226;2023-02-13T15:02:14;10.70;99.90
4725;DHT22;2376;53.544;10.226;2023-02-13T15:04:44;10.70;99.90
4725;DHT22;2376;53.544;10.226;2023-02-13T15:07:15;10.70;99.90
4725;DHT22;2376;53.544;10.226;2023-02-13T15:09:47;10.70;99.90
4725;DHT22;2376;53.544;10.226;2023-02-13T15:12:29;10.70;99.90
4725;DHT22;2376;53.544;10.226;2023-02-13T15:14:59;10.70;99.90
4725;DHT22;2376;53.544;10.226;2023-02-13T15:17:29;10.70;99.90
4725;DHT22;2376;53.544;10.226;2023-02-13T15:20:02;10.70;99.90
4725;DHT22;2376;53.544;10.226;2023-02-13T15:22:32;10.70;99.90
4725;DHT22;2376;53.544;10.226;2023-02-13T15:25:00;10.70;99.90
4725;DHT22;2376;53.544;10.226;2023-02-13T15:27:29;10.70;99.90
4725;DHT22;2376;53.544;10.226;2023-02-13T15:30:01;10.70;99.90
4725;DHT22;2376;53.544;10.226;2023-02-13T15:32:33;10.80;99.90
4725;DHT22;2376;53.544;10.226;2023-02-13T15:35:03;10.70;99.90
4725;DHT22;2376;53.544;10.226;2023-02-13T15:37:35;10.70;99.90
4725;DHT22;2376;53.544;10.226;2023-02-13T15:40:15;10.60;99.90
4725;DHT22;2376;53.544;10.226;2023-02-13T15:42:42;10.60;99.90
4725;DHT22;2376;53.544;10.226;2023-02-13T15:45:14;10.60;99.90
4725;DHT22;2376;53.544;10.226;2023-02-13T15:47:43;10.60;99.90
4725;DHT22;2376;53.544;10.226;2023-02-13T15:50:16;10.60;99.90
4725;DHT22;2376;53.544;10.226;2023-02-13T15:52:44;10.50;99.90
4725;DHT22;2376;53.544;10.226;2023-02-13T15:55:18;10.50;99.90
4725;DHT22;2376;53.544;10.226;2023-02-13T15:57:45;10.50;99.90
4725;DHT22;2376;53.544;10.226;2023-02-13T16:00:20;10.50;99.90
4725;DHT22;2376;53.544;10.226;2023-02-13T16:02:48;10.50;99.90
4725;DHT22;2376;53.544;10.226;2023-02-13T16:05:16;10.50;99.90
4725;DHT22;2376;53.544;10.226;2023-02-13T16:07:48;10.50;99.90
4725;DHT22;2376;53.544;10.226;2023-02-13T16:10:16;10.50;99.90
4725;DHT22;2376;53.544;10.226;2023-02-13T16:12:47;10.50;99.90
4725;DHT22;2376;53.544;10.226;2023-02-13T16:15:18;10.50;99.90
4725;DHT22;2376;53.544;10.226;2023-02-13T16:17:46;10.50;99.90
4725;DHT22;2376;53.544;10.226;2023-02-13T16:20:18;10.50;99.90
4725;DHT22;2376;53.544;10.226;2023-02-13T16:22:47;10.40;99.90
4725;DHT22;2376;53.544;10.226;2023-02-13T16:25:17;10.30;99.90
4725;DHT22;2376;53.544;10.226;2023-02-13T16:27:48;10.30;99.90
4725;DHT22;2376;53.544;10.226;2023-02-13T16:30:24;10.30;99.90
4725;DHT22;2376;53.544;10.226;2023-02-13T16:32:51;10.40;99.90
4725;DHT22;2376;53.544;10.226;2023-02-13T16:35:26;10.30;99.90